createdAt,value
2022-09-01T00:02:21.055Z,60.27
2022-09-01T00:04:48.849Z,61.99
2022-09-01T00:07:16.237Z,61.60
2022-09-01T00:09:43.706Z,61.91
2022-09-01T00:12:11.477Z,61.64
2022-09-01T00:14:41.585Z,62.83
2022-09-01T00:17:11.016Z,63.33
2022-09-01T00:19:40.112Z,64.26
2022-09-01T00:22:08.100Z,64.22
2022-09-01T00:24:35.763Z,65.41
2022-09-01T00:27:03.709Z,65.04
2022-09-01T00:29:31.097Z,65.26
2022-09-01T00:31:58.647Z,64.64
2022-09-01T00:34:26.315Z,65.65
2022-09-01T00:36:54.177Z,66.30
2022-09-01T00:39:21.685Z,65.97
2022-09-01T08:42:39.553Z,78.06
2022-09-01T08:45:19.720Z,78.06
2022-09-01T08:48:15.193Z,75.81
2022-09-01T08:50:40.879Z,73.51
2022-09-01T08:53:23.286Z,67.64
2022-09-01T08:55:56.060Z,70.71
2022-09-01T08:58:23.475Z,70.04
2022-09-01T09:00:58.127Z,68.97
2022-09-01T09:03:43.533Z,67.06
2022-09-01T09:06:17.944Z,70.13
2022-09-01T09:08:45.206Z,66.92
2022-09-01T09:11:30.145Z,70.23
2022-09-01T09:14:12.123Z,72.11
2022-09-01T09:16:43.129Z,74.32
2022-09-01T09:19:37.988Z,73.00
2022-09-01T09:22:11.356Z,71.69
2022-09-01T09:25:09.213Z,70.74
2022-09-01T09:27:39.899Z,71.75
2022-09-01T09:30:20.702Z,70.76
2022-09-01T09:35:47.119Z,71.23
2022-09-01T09:38:21.015Z,69.34
2022-09-01T09:41:27.647Z,69.18
2022-09-01T09:44:08.488Z,69.36
2022-09-01T09:46:43.757Z,65.18
2022-09-01T09:49:34.309Z,66.91
2022-09-01T09:52:10.699Z,67.03
2022-09-01T09:54:40.874Z,69.03
2022-09-01T09:57:08.143Z,63.17
2022-09-01T10:00:00.740Z,68.53
2022-09-01T10:02:39.871Z,68.31
2022-09-01T10:05:30.168Z,65.74
2022-09-01T10:07:58.425Z,66.28
2022-09-01T10:10:25.960Z,66.58
2022-09-01T10:12:54.264Z,65.39
2022-09-01T10:15:25.525Z,65.24
2022-09-01T10:18:14.067Z,67.68
2022-09-01T10:20:56.277Z,68.21
2022-09-01T10:23:27.249Z,63.40
2022-09-01T10:26:26.606Z,62.82
2022-09-01T10:29:08.393Z,62.01
2022-09-01T10:31:41.251Z,60.17
2022-09-01T10:34:13.568Z,61.82
2022-09-01T10:36:42.696Z,60.64
2022-09-01T10:39:12.334Z,59.59
2022-09-01T10:41:42.540Z,58.05
2022-09-01T10:44:11.708Z,58.98
2022-09-01T10:46:42.343Z,56.24
2022-09-01T10:49:29.776Z,60.40
2022-09-01T10:52:07.461Z,59.79
2022-09-01T10:54:50.677Z,58.37
2022-09-01T10:57:18.937Z,54.47
2022-09-01T10:59:56.065Z,55.29
2022-09-01T11:02:28.109Z,55.61
2022-09-01T11:05:00.398Z,56.12
2022-09-01T11:08:09.174Z,55.14
2022-09-01T11:10:49.306Z,51.82
2022-09-01T11:13:50.102Z,53.67
2022-09-01T11:16:47.910Z,50.67
2022-09-01T11:19:44.112Z,51.11
2022-09-01T11:22:15.473Z,49.68
2022-09-01T11:24:44.248Z,48.05
2022-09-01T11:27:13.779Z,50.08
2022-09-01T11:29:53.017Z,48.62
2022-09-01T11:32:28.199Z,47.48
2022-09-01T11:34:56.163Z,46.11
2022-09-01T11:37:27.594Z,48.09
2022-09-01T11:39:58.960Z,46.79
2022-09-01T11:42:46.766Z,48.77
2022-09-01T11:45:21.451Z,45.88
2022-09-01T11:47:52.874Z,43.20
2022-09-01T11:50:40.358Z,42.67
2022-09-01T11:53:12.187Z,42.91
2022-09-01T11:55:42.982Z,40.71
2022-09-01T11:58:33.161Z,43.95
2022-09-01T12:01:17.938Z,42.10
2022-09-01T12:03:47.358Z,43.22
2022-09-01T12:06:24.447Z,42.54
2022-09-01T12:09:04.964Z,41.30
2022-09-01T12:11:34.429Z,40.39
2022-09-01T12:14:11.665Z,42.95
2022-09-01T12:16:42.533Z,42.44
2022-09-01T12:19:26.787Z,41.50
2022-09-01T12:22:13.620Z,42.54
2022-09-01T12:24:47.336Z,42.41
2022-09-01T12:27:15.010Z,40.87
2022-09-01T12:29:43.248Z,39.64
2022-09-01T12:32:11.598Z,38.91
2022-09-01T12:34:48.151Z,41.13
2022-09-01T12:37:15.697Z,40.16
2022-09-01T12:39:45.681Z,40.74
2022-09-01T12:42:25.090Z,41.69
2022-09-01T12:45:02.529Z,38.77
2022-09-01T12:47:36.166Z,38.19
2022-09-01T12:50:16.496Z,40.79
2022-09-01T12:52:55.601Z,41.20
2022-09-01T12:58:12.825Z,40.93
2022-09-01T13:00:59.303Z,39.30
2022-09-01T13:03:30.044Z,39.87
2022-09-01T13:06:00.005Z,38.69
2022-09-01T13:08:33.255Z,40.12
2022-09-01T13:11:05.499Z,40.85
2022-09-01T13:13:35.347Z,39.58
2022-09-01T13:16:12.893Z,41.11
2022-09-01T13:21:32.187Z,40.14
2022-09-01T13:23:59.647Z,40.39
2022-09-01T13:26:27.639Z,39.61
2022-09-01T13:28:55.324Z,37.42
2022-09-01T13:31:30.731Z,39.46
2022-09-01T13:34:20.511Z,38.06
2022-09-01T13:36:51.727Z,38.57
2022-09-01T13:39:21.141Z,37.66
2022-09-01T13:41:49.589Z,37.75
2022-09-01T13:44:18.568Z,39.11
2022-09-01T13:49:44.114Z,39.42
2022-09-01T13:52:22.358Z,35.93
2022-09-01T13:54:50.109Z,37.22
2022-09-01T13:57:17.904Z,37.86
2022-09-01T13:59:45.618Z,38.33
2022-09-01T14:02:13.076Z,38.49
2022-09-01T14:04:40.921Z,37.40
2022-09-01T14:07:08.336Z,36.83
2022-09-01T14:09:35.750Z,36.66
2022-09-01T14:12:05.389Z,36.60
2022-09-01T14:17:21.412Z,38.43
2022-09-01T14:19:51.573Z,36.69
2022-09-01T14:22:19.001Z,36.69
2022-09-01T14:24:47.256Z,37.00
2022-09-01T14:27:14.894Z,34.91
2022-09-01T14:32:09.025Z,35.02
2022-09-01T14:34:37.500Z,35.04
2022-09-01T14:37:05.057Z,36.88
2022-09-01T14:39:32.883Z,36.71
2022-09-01T14:42:00.235Z,36.96
2022-09-01T14:44:27.624Z,35.36
2022-09-01T14:46:55.336Z,36.90
2022-09-01T14:49:22.789Z,35.64
2022-09-01T14:54:39.580Z,35.21
2022-09-01T14:59:54.984Z,33.97
2022-09-01T15:02:23.891Z,33.95
2022-09-01T15:04:51.904Z,32.68
2022-09-01T15:07:20.106Z,33.36
2022-09-01T15:09:47.511Z,34.45
2022-09-01T15:12:14.912Z,34.76
2022-09-01T15:14:42.584Z,34.37
2022-09-01T15:17:10.112Z,35.55
2022-09-01T15:19:37.481Z,34.70
2022-09-01T15:22:06.854Z,35.13
2022-09-01T15:24:35.285Z,35.64
2022-09-01T15:27:02.940Z,35.43
2022-09-01T15:29:34.122Z,35.10
2022-09-01T15:32:01.884Z,34.55
2022-09-01T15:34:29.290Z,35.38
2022-09-01T15:36:56.959Z,35.42
2022-09-01T15:39:24.417Z,35.34
2022-09-01T15:41:51.955Z,36.04
2022-09-01T15:44:19.608Z,33.89
2022-09-01T15:46:47.069Z,35.84
2022-09-01T15:49:14.686Z,36.11
2022-09-01T15:51:43.842Z,34.87
2022-09-01T15:54:20.829Z,35.27
2022-09-01T15:56:49.148Z,35.30
2022-09-01T15:59:16.830Z,35.88
2022-09-01T16:01:45.940Z,36.57
2022-09-01T16:04:19.855Z,35.75
2022-09-01T16:06:49.514Z,36.11
2022-09-01T16:09:18.500Z,35.89
2022-09-01T16:11:45.910Z,35.29
2022-09-01T16:14:14.852Z,36.13
2022-09-01T16:17:20.523Z,36.42
2022-09-01T16:19:57.089Z,36.13
2022-09-01T16:22:33.543Z,35.25
2022-09-01T16:25:22.380Z,35.34
2022-09-01T16:27:56.328Z,36.11
2022-09-01T16:30:32.709Z,35.62
2022-09-01T16:33:04.503Z,36.43
2022-09-01T16:35:44.875Z,36.61
2022-09-01T16:38:17.240Z,36.59
2022-09-01T16:40:49.126Z,37.27
2022-09-01T16:43:40.447Z,36.47
2022-09-01T16:46:19.575Z,36.79
2022-09-01T16:49:04.881Z,35.84
2022-09-01T16:52:09.683Z,36.63
2022-09-01T16:55:05.203Z,39.77
2022-09-01T16:57:59.445Z,38.16
2022-09-01T17:00:37.154Z,39.37
2022-09-01T17:03:18.001Z,40.14
2022-09-01T17:06:17.302Z,41.24
2022-09-01T17:08:52.861Z,41.89
2022-09-01T17:11:27.241Z,42.16
2022-09-01T17:13:55.869Z,43.30
2022-09-01T17:16:38.178Z,42.51
2022-09-01T17:19:10.454Z,42.07
2022-09-01T17:21:43.068Z,41.90
2022-09-01T17:24:26.015Z,42.30
2022-09-01T17:26:56.852Z,42.67
2022-09-01T17:29:30.158Z,42.49
2022-09-01T17:32:16.318Z,43.04
2022-09-01T17:35:27.546Z,42.96
2022-09-01T17:38:06.676Z,42.79
2022-09-01T17:40:43.095Z,42.82
2022-09-01T17:43:29.738Z,44.15
2022-09-01T17:46:04.456Z,43.67
2022-09-01T17:48:40.910Z,44.88
2022-09-01T17:51:34.040Z,43.14
2022-09-01T17:54:19.594Z,43.64
2022-09-01T17:57:09.365Z,43.25
2022-09-01T18:00:01.589Z,44.61
2022-09-01T18:03:02.782Z,44.63
2022-09-01T18:05:39.809Z,45.77
2022-09-01T18:08:13.660Z,46.99
2022-09-01T18:10:46.798Z,48.45
2022-09-01T18:13:42.456Z,48.10
2022-09-01T18:18:51.171Z,48.73
2022-09-01T18:21:30.754Z,49.15
2022-09-01T18:24:11.982Z,49.60
2022-09-01T18:26:41.601Z,50.78
2022-09-01T18:29:10.290Z,49.96
2022-09-01T18:31:50.336Z,49.51
2022-09-01T18:34:48.766Z,50.29
2022-09-01T18:37:25.835Z,50.32
2022-09-01T18:40:02.424Z,52.16
2022-09-01T18:42:35.884Z,50.81
2022-09-01T18:45:05.732Z,51.73
2022-09-01T18:47:35.745Z,51.95
2022-09-01T18:50:08.166Z,53.29
2022-09-01T18:53:03.460Z,52.95
2022-09-01T18:55:33.897Z,53.93
2022-09-01T18:58:09.029Z,53.15
2022-09-01T19:00:52.153Z,53.65
2022-09-01T19:03:29.513Z,53.39
2022-09-01T19:06:18.849Z,54.30
2022-09-01T19:09:09.170Z,53.96
2022-09-01T19:12:11.565Z,54.80
2022-09-01T19:15:05.482Z,55.46
2022-09-01T19:17:40.350Z,55.55
2022-09-01T19:20:12.489Z,55.04
2022-09-01T19:23:01.214Z,55.18
2022-09-01T19:25:37.034Z,55.21
2022-09-01T19:28:17.074Z,55.65
2022-09-01T19:30:48.296Z,56.07
2022-09-01T19:33:20.663Z,55.69
2022-09-01T19:35:49.624Z,55.00
2022-09-01T19:38:21.828Z,54.85
2022-09-01T19:40:51.948Z,56.23
2022-09-01T19:43:21.446Z,55.92
2022-09-01T19:46:10.171Z,55.72
2022-09-01T19:49:02.006Z,56.45
2022-09-01T19:52:09.838Z,56.29
2022-09-01T19:54:57.797Z,55.82
2022-09-01T19:57:34.995Z,57.37
2022-09-01T20:00:11.929Z,56.79
2022-09-01T20:03:01.177Z,56.24
2022-09-01T20:05:50.303Z,55.79
2022-09-01T20:08:31.277Z,56.95
2022-09-01T20:11:35.838Z,56.86
2022-09-01T20:14:33.003Z,56.20
2022-09-01T20:17:04.534Z,56.86
2022-09-01T20:19:59.600Z,56.34
2022-09-01T20:22:44.489Z,58.33
2022-09-01T20:25:25.860Z,57.23
2022-09-01T20:28:05.588Z,57.53
2022-09-01T20:30:41.060Z,59.47
2022-09-01T20:33:23.165Z,59.11
2022-09-01T20:36:09.085Z,59.02
2022-09-01T20:39:02.138Z,58.78
2022-09-01T20:41:50.209Z,59.51
2022-09-01T20:45:05.823Z,59.48
2022-09-01T20:47:33.522Z,61.69
2022-09-01T20:50:02.380Z,61.47
2022-09-01T20:53:01.337Z,62.07
2022-09-01T20:55:28.913Z,62.09
2022-09-01T20:58:00.261Z,61.46
2022-09-01T21:00:29.061Z,61.23
2022-09-01T21:03:21.801Z,60.62
2022-09-01T21:06:07.583Z,61.55
2022-09-01T21:08:49.110Z,62.50
2022-09-01T21:11:16.402Z,62.94
2022-09-01T21:14:05.721Z,62.46
2022-09-01T21:17:09.873Z,63.48
2022-09-01T21:19:57.903Z,63.35
2022-09-01T21:22:25.324Z,62.22
2022-09-01T21:24:53.065Z,62.62
2022-09-01T21:27:23.686Z,63.41
2022-09-01T21:29:59.621Z,61.93
2022-09-01T21:32:29.242Z,61.73
2022-09-01T21:34:56.912Z,62.65
2022-09-01T21:37:25.463Z,62.93
2022-09-01T21:39:54.326Z,62.60
2022-09-01T21:42:28.638Z,64.29
2022-09-01T21:44:56.494Z,63.75
2022-09-01T21:47:24.511Z,63.49
2022-09-01T21:49:51.898Z,64.43
2022-09-01T21:52:19.535Z,64.78
2022-09-01T21:54:47.399Z,63.86
2022-09-01T21:57:14.916Z,64.51
2022-09-01T21:59:42.569Z,64.18
2022-09-01T22:02:10.161Z,64.81
2022-09-01T22:04:38.736Z,64.23
2022-09-01T22:07:09.102Z,64.14
2022-09-01T22:09:36.447Z,64.11
2022-09-01T22:12:04.278Z,64.61
2022-09-01T22:14:31.669Z,64.87
2022-09-01T22:17:04.013Z,63.43
2022-09-01T22:19:35.929Z,60.71
2022-09-01T22:22:03.873Z,58.77
2022-09-01T22:24:31.536Z,53.59
2022-09-01T22:26:59.306Z,54.88
2022-09-01T22:29:26.762Z,51.50
2022-09-01T22:31:54.261Z,50.90
2022-09-01T22:34:21.906Z,50.06
2022-09-01T22:36:49.839Z,49.63
2022-09-01T22:39:18.774Z,47.93
2022-09-01T22:41:47.646Z,47.55
2022-09-01T22:44:15.005Z,48.65
2022-09-01T22:46:42.418Z,47.50
2022-09-01T22:49:10.176Z,47.08
2022-09-01T22:51:40.040Z,47.69
2022-09-01T22:54:08.849Z,46.37
2022-09-01T22:56:39.453Z,46.60
2022-09-01T22:59:09.765Z,46.53
2022-09-01T23:01:42.444Z,46.24
2022-09-01T23:04:13.189Z,46.15
2022-09-01T23:06:47.030Z,45.94
2022-09-01T23:09:16.739Z,46.45
2022-09-01T23:11:44.955Z,46.29
2022-09-01T23:14:12.661Z,44.80
2022-09-01T23:16:40.418Z,45.04
2022-09-01T23:19:08.014Z,44.12
2022-09-01T23:21:37.113Z,44.54
2022-09-01T23:24:06.614Z,44.26
2022-09-01T23:26:35.137Z,44.47
2022-09-01T23:29:03.684Z,43.88
2022-09-01T23:31:34.605Z,43.84
2022-09-01T23:34:03.735Z,43.29
2022-09-01T23:36:31.681Z,43.08
2022-09-01T23:38:59.206Z,42.22
2022-09-01T23:41:31.205Z,43.25
2022-09-01T23:44:01.539Z,43.28
2022-09-01T23:46:34.006Z,42.51
2022-09-01T23:49:02.322Z,42.30
2022-09-01T23:51:30.103Z,42.69
2022-09-01T23:53:57.765Z,42.46
2022-09-01T23:56:27.374Z,41.47
2022-09-01T23:58:54.756Z,41.71
